sensor_id;sensor_type;location;lat;lon;timestamp;P1;durP1;ratioP1;P2;durP2;ratioP2
36137;SDS011;22194;50.046;21.954;2022-12-20T00:01:53;24.00;;;9.90;;
36137;SDS011;22194;50.046;21.954;2022-12-20T00:04:22;21.90;;;8.30;;
36137;SDS011;22194;50.046;21.954;2022-12-20T00:06:50;25.10;;;10.20;;
36137;SDS011;22194;50.046;21.954;2022-12-20T00:09:18;22.50;;;9.10;;
36137;SDS011;22194;50.046;21.954;2022-12-20T00:11:48;25.60;;;9.80;;
36137;SDS011;22194;50.046;21.954;2022-12-20T00:14:16;22.30;;;8.50;;
36137;SDS011;22194;50.046;21.954;2022-12-20T00:16:46;24.10;;;9.40;;
36137;SDS011;22194;50.046;21.954;2022-12-20T00:19:18;25.10;;;9.50;;
36137;SDS011;22194;50.046;21.954;2022-12-20T00:21:46;25.90;;;9.40;;
36137;SDS011;22194;50.046;21.954;2022-12-20T00:24:14;22.60;;;8.90;;
36137;SDS011;22194;50.046;21.954;2022-12-20T00:26:51;22.50;;;9.20;;
36137;SDS011;22194;50.046;21.954;2022-12-20T00:29:20;24.00;;;9.50;;
36137;SDS011;22194;50.046;21.954;2022-12-20T00:31:48;25.00;;;9.10;;
36137;SDS011;22194;50.046;21.954;2022-12-20T00:34:19;27.70;;;9.90;;
36137;SDS011;22194;50.046;21.954;2022-12-20T00:36:49;22.70;;;9.10;;
36137;SDS011;22194;50.046;21.954;2022-12-20T00:39:18;25.40;;;10.60;;
36137;SDS011;22194;50.046;21.954;2022-12-20T00:41:46;23.20;;;9.30;;
36137;SDS011;22194;50.046;21.954;2022-12-20T00:44:14;23.70;;;9.30;;
36137;SDS011;22194;50.046;21.954;2022-12-20T00:46:41;22.90;;;9.30;;
36137;SDS011;22194;50.046;21.954;2022-12-20T00:49:11;23.20;;;9.90;;
36137;SDS011;22194;50.046;21.954;2022-12-20T00:51:39;24.70;;;10.20;;
36137;SDS011;22194;50.046;21.954;2022-12-20T00:54:07;25.70;;;10.50;;
36137;SDS011;22194;50.046;21.954;2022-12-20T00:56:35;24.40;;;10.40;;
36137;SDS011;22194;50.046;21.954;2022-12-20T00:59:05;25.10;;;9.80;;
36137;SDS011;22194;50.046;21.954;2022-12-20T01:01:33;24.00;;;9.50;;
36137;SDS011;22194;50.046;21.954;2022-12-20T01:04:04;24.80;;;9.70;;
36137;SDS011;22194;50.046;21.954;2022-12-20T01:06:33;25.00;;;10.50;;
36137;SDS011;22194;50.046;21.954;2022-12-20T01:09:02;24.10;;;9.50;;
36137;SDS011;22194;50.046;21.954;2022-12-20T01:11:32;23.30;;;9.20;;
36137;SDS011;22194;50.046;21.954;2022-12-20T01:14:04;24.30;;;9.10;;
36137;SDS011;22194;50.046;21.954;2022-12-20T01:16:38;23.20;;;9.80;;
36137;SDS011;22194;50.046;21.954;2022-12-20T01:19:10;23.60;;;10.00;;
36137;SDS011;22194;50.046;21.954;2022-12-20T01:21:40;22.90;;;8.70;;
36137;SDS011;22194;50.046;21.954;2022-12-20T01:24:14;24.10;;;9.20;;
36137;SDS011;22194;50.046;21.954;2022-12-20T01:26:46;24.70;;;10.90;;
36137;SDS011;22194;50.046;21.954;2022-12-20T01:29:16;24.00;;;10.10;;
36137;SDS011;22194;50.046;21.954;2022-12-20T01:31:46;24.00;;;9.70;;
36137;SDS011;22194;50.046;21.954;2022-12-20T01:34:16;23.60;;;9.60;;
36137;SDS011;22194;50.046;21.954;2022-12-20T01:36:44;24.40;;;10.10;;
36137;SDS011;22194;50.046;21.954;2022-12-20T01:39:14;22.10;;;9.40;;
36137;SDS011;22194;50.046;21.954;2022-12-20T01:41:44;24.70;;;10.30;;
36137;SDS011;22194;50.046;21.954;2022-12-20T01:46:46;20.60;;;8.20;;
36137;SDS011;22194;50.046;21.954;2022-12-20T01:49:23;24.10;;;10.10;;
36137;SDS011;22194;50.046;21.954;2022-12-20T01:52:05;24.00;;;10.20;;
36137;SDS011;22194;50.046;21.954;2022-12-20T01:55:05;24.80;;;10.20;;
36137;SDS011;22194;50.046;21.954;2022-12-20T01:57:48;24.50;;;9.80;;
36137;SDS011;22194;50.046;21.954;2022-12-20T02:00:28;23.80;;;11.00;;
36137;SDS011;22194;50.046;21.954;2022-12-20T02:02:58;23.00;;;9.70;;
36137;SDS011;22194;50.046;21.954;2022-12-20T02:05:35;19.20;;;7.80;;
36137;SDS011;22194;50.046;21.954;2022-12-20T02:08:07;24.90;;;10.00;;
36137;SDS011;22194;50.046;21.954;2022-12-20T02:16:24;21.00;;;8.60;;
36137;SDS011;22194;50.046;21.954;2022-12-20T02:22:39;24.50;;;9.30;;
36137;SDS011;22194;50.046;21.954;2022-12-20T02:27:42;23.00;;;8.80;;
36137;SDS011;22194;50.046;21.954;2022-12-20T02:30:21;23.90;;;9.80;;
36137;SDS011;22194;50.046;21.954;2022-12-20T02:33:04;24.20;;;10.30;;
36137;SDS011;22194;50.046;21.954;2022-12-20T02:35:40;24.30;;;10.00;;
36137;SDS011;22194;50.046;21.954;2022-12-20T02:41:22;25.70;;;9.40;;
36137;SDS011;22194;50.046;21.954;2022-12-20T02:44:02;25.10;;;10.50;;
36137;SDS011;22194;50.046;21.954;2022-12-20T02:46:57;23.80;;;9.90;;
36137;SDS011;22194;50.046;21.954;2022-12-20T02:49:32;23.20;;;9.80;;
36137;SDS011;22194;50.046;21.954;2022-12-20T02:52:10;25.80;;;9.50;;
36137;SDS011;22194;50.046;21.954;2022-12-20T02:54:41;27.40;;;10.20;;
36137;SDS011;22194;50.046;21.954;2022-12-20T02:57:17;23.80;;;9.80;;
36137;SDS011;22194;50.046;21.954;2022-12-20T02:59:59;24.20;;;10.40;;
36137;SDS011;22194;50.046;21.954;2022-12-20T03:02:34;24.30;;;10.20;;
36137;SDS011;22194;50.046;21.954;2022-12-20T03:05:25;24.10;;;9.60;;
36137;SDS011;22194;50.046;21.954;2022-12-20T03:07:55;23.70;;;9.80;;
36137;SDS011;22194;50.046;21.954;2022-12-20T03:10:24;24.20;;;11.10;;
36137;SDS011;22194;50.046;21.954;2022-12-20T03:12:54;25.80;;;10.60;;
36137;SDS011;22194;50.046;21.954;2022-12-20T03:15:22;23.70;;;9.60;;
36137;SDS011;22194;50.046;21.954;2022-12-20T03:17:50;23.70;;;9.40;;
36137;SDS011;22194;50.046;21.954;2022-12-20T03:20:18;24.00;;;10.00;;
36137;SDS011;22194;50.046;21.954;2022-12-20T03:22:46;27.70;;;10.20;;
36137;SDS011;22194;50.046;21.954;2022-12-20T03:25:14;22.40;;;9.40;;
36137;SDS011;22194;50.046;21.954;2022-12-20T03:27:44;26.80;;;10.00;;
36137;SDS011;22194;50.046;21.954;2022-12-20T03:30:14;26.10;;;11.60;;
36137;SDS011;22194;50.046;21.954;2022-12-20T03:32:43;25.20;;;10.20;;
36137;SDS011;22194;50.046;21.954;2022-12-20T03:35:11;24.20;;;9.70;;
36137;SDS011;22194;50.046;21.954;2022-12-20T03:37:39;25.50;;;10.10;;
36137;SDS011;22194;50.046;21.954;2022-12-20T03:40:10;24.50;;;9.90;;
36137;SDS011;22194;50.046;21.954;2022-12-20T03:42:39;26.90;;;10.40;;
36137;SDS011;22194;50.046;21.954;2022-12-20T03:45:09;25.30;;;9.80;;
36137;SDS011;22194;50.046;21.954;2022-12-20T03:47:37;26.50;;;9.90;;
36137;SDS011;22194;50.046;21.954;2022-12-20T03:50:08;26.60;;;10.00;;
36137;SDS011;22194;50.046;21.954;2022-12-20T03:52:37;28.30;;;11.30;;
36137;SDS011;22194;50.046;21.954;2022-12-20T03:55:07;25.70;;;10.30;;
36137;SDS011;22194;50.046;21.954;2022-12-20T03:57:36;25.50;;;10.60;;
36137;SDS011;22194;50.046;21.954;2022-12-20T04:00:04;25.10;;;10.30;;
36137;SDS011;22194;50.046;21.954;2022-12-20T04:02:33;24.90;;;10.80;;
36137;SDS011;22194;50.046;21.954;2022-12-20T04:05:06;25.50;;;10.50;;
36137;SDS011;22194;50.046;21.954;2022-12-20T04:07:35;25.00;;;10.60;;
36137;SDS011;22194;50.046;21.954;2022-12-20T04:10:03;26.70;;;11.90;;
36137;SDS011;22194;50.046;21.954;2022-12-20T04:12:31;28.40;;;11.10;;
36137;SDS011;22194;50.046;21.954;2022-12-20T04:14:59;28.10;;;12.20;;
36137;SDS011;22194;50.046;21.954;2022-12-20T04:17:27;25.30;;;10.70;;
36137;SDS011;22194;50.046;21.954;2022-12-20T04:19:55;26.10;;;10.80;;
36137;SDS011;22194;50.046;21.954;2022-12-20T04:22:23;24.90;;;9.90;;
36137;SDS011;22194;50.046;21.954;2022-12-20T04:24:51;24.30;;;10.50;;
36137;SDS011;22194;50.046;21.954;2022-12-20T04:27:19;22.90;;;9.70;;
36137;SDS011;22194;50.046;21.954;2022-12-20T04:29:47;24.80;;;10.70;;
36137;SDS011;22194;50.046;21.954;2022-12-20T04:32:15;23.90;;;10.80;;
36137;SDS011;22194;50.046;21.954;2022-12-20T04:34:43;26.20;;;10.50;;
36137;SDS011;22194;50.046;21.954;2022-12-20T04:37:11;25.90;;;10.70;;
36137;SDS011;22194;50.046;21.954;2022-12-20T04:39:39;27.90;;;11.60;;
36137;SDS011;22194;50.046;21.954;2022-12-20T04:42:07;25.10;;;10.50;;
36137;SDS011;22194;50.046;21.954;2022-12-20T04:44:35;27.50;;;11.20;;
36137;SDS011;22194;50.046;21.954;2022-12-20T04:47:03;25.70;;;10.40;;
36137;SDS011;22194;50.046;21.954;2022-12-20T04:49:31;28.40;;;12.00;;
36137;SDS011;22194;50.046;21.954;2022-12-20T04:51:59;28.70;;;12.20;;
36137;SDS011;22194;50.046;21.954;2022-12-20T04:54:47;27.60;;;11.60;;
36137;SDS011;22194;50.046;21.954;2022-12-20T04:57:15;28.90;;;12.70;;
36137;SDS011;22194;50.046;21.954;2022-12-20T04:59:44;27.50;;;11.40;;
36137;SDS011;22194;50.046;21.954;2022-12-20T05:02:11;26.10;;;11.50;;
36137;SDS011;22194;50.046;21.954;2022-12-20T05:04:41;29.30;;;11.80;;
36137;SDS011;22194;50.046;21.954;2022-12-20T05:07:09;23.70;;;10.10;;
36137;SDS011;22194;50.046;21.954;2022-12-20T05:09:37;26.60;;;11.20;;
36137;SDS011;22194;50.046;21.954;2022-12-20T05:12:07;26.80;;;10.30;;
36137;SDS011;22194;50.046;21.954;2022-12-20T05:14:35;28.50;;;12.00;;
36137;SDS011;22194;50.046;21.954;2022-12-20T05:17:03;27.30;;;11.40;;
36137;SDS011;22194;50.046;21.954;2022-12-20T05:19:31;26.00;;;10.70;;
36137;SDS011;22194;50.046;21.954;2022-12-20T05:22:02;28.50;;;12.50;;
36137;SDS011;22194;50.046;21.954;2022-12-20T05:24:49;25.50;;;10.60;;
36137;SDS011;22194;50.046;21.954;2022-12-20T05:27:36;25.80;;;10.90;;
36137;SDS011;22194;50.046;21.954;2022-12-20T05:30:06;25.00;;;10.20;;
36137;SDS011;22194;50.046;21.954;2022-12-20T05:32:34;26.10;;;10.50;;
36137;SDS011;22194;50.046;21.954;2022-12-20T05:35:04;27.30;;;12.40;;
36137;SDS011;22194;50.046;21.954;2022-12-20T05:37:32;24.90;;;10.30;;
36137;SDS011;22194;50.046;21.954;2022-12-20T05:40:05;28.70;;;11.70;;
36137;SDS011;22194;50.046;21.954;2022-12-20T05:42:34;27.20;;;10.60;;
36137;SDS011;22194;50.046;21.954;2022-12-20T05:45:02;27.40;;;11.20;;
36137;SDS011;22194;50.046;21.954;2022-12-20T05:47:33;25.60;;;10.40;;
36137;SDS011;22194;50.046;21.954;2022-12-20T05:50:01;27.90;;;10.90;;
36137;SDS011;22194;50.046;21.954;2022-12-20T05:52:31;26.20;;;11.00;;
36137;SDS011;22194;50.046;21.954;2022-12-20T05:55:00;27.60;;;11.00;;
36137;SDS011;22194;50.046;21.954;2022-12-20T05:57:30;25.40;;;10.60;;
36137;SDS011;22194;50.046;21.954;2022-12-20T05:59:59;29.30;;;11.50;;
36137;SDS011;22194;50.046;21.954;2022-12-20T06:02:29;25.60;;;10.30;;
36137;SDS011;22194;50.046;21.954;2022-12-20T06:04:58;24.50;;;10.00;;
36137;SDS011;22194;50.046;21.954;2022-12-20T06:07:27;26.50;;;11.00;;
36137;SDS011;22194;50.046;21.954;2022-12-20T06:09:57;24.90;;;10.10;;
36137;SDS011;22194;50.046;21.954;2022-12-20T06:12:27;23.50;;;10.90;;
36137;SDS011;22194;50.046;21.954;2022-12-20T06:14:57;25.20;;;11.10;;
36137;SDS011;22194;50.046;21.954;2022-12-20T06:17:25;26.80;;;10.40;;
36137;SDS011;22194;50.046;21.954;2022-12-20T06:19:54;29.30;;;11.90;;
36137;SDS011;22194;50.046;21.954;2022-12-20T06:22:22;29.00;;;11.40;;
36137;SDS011;22194;50.046;21.954;2022-12-20T06:24:50;27.00;;;10.90;;
36137;SDS011;22194;50.046;21.954;2022-12-20T06:27:18;27.00;;;11.40;;
36137;SDS011;22194;50.046;21.954;2022-12-20T06:29:48;24.90;;;9.40;;
36137;SDS011;22194;50.046;21.954;2022-12-20T06:32:21;28.90;;;12.10;;
36137;SDS011;22194;50.046;21.954;2022-12-20T06:34:49;27.00;;;10.70;;
36137;SDS011;22194;50.046;21.954;2022-12-20T06:37:17;25.30;;;12.20;;
36137;SDS011;22194;50.046;21.954;2022-12-20T06:39:45;27.10;;;10.90;;
36137;SDS011;22194;50.046;21.954;2022-12-20T06:42:13;27.20;;;11.10;;
36137;SDS011;22194;50.046;21.954;2022-12-20T06:44:41;25.90;;;10.40;;
36137;SDS011;22194;50.046;21.954;2022-12-20T06:47:11;24.70;;;10.10;;
36137;SDS011;22194;50.046;21.954;2022-12-20T06:49:39;24.00;;;9.80;;
36137;SDS011;22194;50.046;21.954;2022-12-20T06:52:07;25.10;;;10.10;;
36137;SDS011;22194;50.046;21.954;2022-12-20T06:54:36;26.80;;;10.30;;
36137;SDS011;22194;50.046;21.954;2022-12-20T06:57:04;25.90;;;10.40;;
36137;SDS011;22194;50.046;21.954;2022-12-20T06:59:35;23.50;;;10.10;;
36137;SDS011;22194;50.046;21.954;2022-12-20T07:02:03;26.60;;;10.20;;
36137;SDS011;22194;50.046;21.954;2022-12-20T07:04:35;27.40;;;11.60;;
36137;SDS011;22194;50.046;21.954;2022-12-20T07:07:06;24.70;;;10.80;;
36137;SDS011;22194;50.046;21.954;2022-12-20T07:09:36;25.30;;;10.70;;
36137;SDS011;22194;50.046;21.954;2022-12-20T07:12:08;26.50;;;10.60;;
36137;SDS011;22194;50.046;21.954;2022-12-20T07:14:38;25.60;;;10.20;;
36137;SDS011;22194;50.046;21.954;2022-12-20T07:17:08;24.90;;;10.70;;
36137;SDS011;22194;50.046;21.954;2022-12-20T07:19:38;23.20;;;10.60;;
36137;SDS011;22194;50.046;21.954;2022-12-20T07:22:18;27.10;;;10.50;;
36137;SDS011;22194;50.046;21.954;2022-12-20T07:24:49;27.30;;;10.80;;
36137;SDS011;22194;50.046;21.954;2022-12-20T07:27:17;23.10;;;10.70;;
36137;SDS011;22194;50.046;21.954;2022-12-20T07:29:45;26.90;;;11.20;;
36137;SDS011;22194;50.046;21.954;2022-12-20T07:32:14;25.00;;;10.80;;
36137;SDS011;22194;50.046;21.954;2022-12-20T07:34:44;28.10;;;11.30;;
36137;SDS011;22194;50.046;21.954;2022-12-20T07:37:12;26.20;;;10.40;;
36137;SDS011;22194;50.046;21.954;2022-12-20T07:39:41;24.50;;;9.50;;
36137;SDS011;22194;50.046;21.954;2022-12-20T07:42:12;26.00;;;11.50;;
36137;SDS011;22194;50.046;21.954;2022-12-20T07:44:42;24.70;;;10.00;;
36137;SDS011;22194;50.046;21.954;2022-12-20T07:47:11;29.20;;;11.50;;
36137;SDS011;22194;50.046;21.954;2022-12-20T07:49:44;27.60;;;11.70;;
36137;SDS011;22194;50.046;21.954;2022-12-20T07:52:12;25.70;;;11.60;;
36137;SDS011;22194;50.046;21.954;2022-12-20T07:54:51;26.30;;;11.60;;
36137;SDS011;22194;50.046;21.954;2022-12-20T07:57:34;24.90;;;11.00;;
36137;SDS011;22194;50.046;21.954;2022-12-20T08:00:13;28.00;;;11.90;;
36137;SDS011;22194;50.046;21.954;2022-12-20T08:02:50;26.40;;;10.90;;
36137;SDS011;22194;50.046;21.954;2022-12-20T08:05:23;24.10;;;9.70;;
36137;SDS011;22194;50.046;21.954;2022-12-20T08:07:52;28.40;;;11.70;;
36137;SDS011;22194;50.046;21.954;2022-12-20T08:10:26;22.50;;;10.10;;
36137;SDS011;22194;50.046;21.954;2022-12-20T08:12:57;25.90;;;10.50;;
36137;SDS011;22194;50.046;21.954;2022-12-20T08:15:27;27.70;;;11.60;;
36137;SDS011;22194;50.046;21.954;2022-12-20T08:17:57;25.00;;;10.70;;
36137;SDS011;22194;50.046;21.954;2022-12-20T08:20:27;27.20;;;11.10;;
36137;SDS011;22194;50.046;21.954;2022-12-20T08:22:55;25.40;;;11.20;;
36137;SDS011;22194;50.046;21.954;2022-12-20T08:25:25;24.20;;;10.30;;
36137;SDS011;22194;50.046;21.954;2022-12-20T08:27:54;28.10;;;11.70;;
36137;SDS011;22194;50.046;21.954;2022-12-20T08:30:21;26.10;;;11.20;;
36137;SDS011;22194;50.046;21.954;2022-12-20T08:32:50;23.90;;;10.90;;
36137;SDS011;22194;50.046;21.954;2022-12-20T08:35:20;28.20;;;12.50;;
36137;SDS011;22194;50.046;21.954;2022-12-20T08:37:50;27.20;;;11.70;;
36137;SDS011;22194;50.046;21.954;2022-12-20T08:40:20;27.70;;;12.40;;
36137;SDS011;22194;50.046;21.954;2022-12-20T08:42:49;26.30;;;11.40;;
36137;SDS011;22194;50.046;21.954;2022-12-20T08:45:17;24.20;;;11.00;;
36137;SDS011;22194;50.046;21.954;2022-12-20T08:47:47;27.20;;;11.60;;
36137;SDS011;22194;50.046;21.954;2022-12-20T08:50:17;25.00;;;11.00;;
36137;SDS011;22194;50.046;21.954;2022-12-20T08:52:46;26.40;;;11.10;;
36137;SDS011;22194;50.046;21.954;2022-12-20T08:55:14;24.90;;;10.10;;
36137;SDS011;22194;50.046;21.954;2022-12-20T08:57:42;27.40;;;11.00;;
36137;SDS011;22194;50.046;21.954;2022-12-20T09:00:10;24.30;;;10.90;;
36137;SDS011;22194;50.046;21.954;2022-12-20T09:02:41;23.20;;;10.60;;
36137;SDS011;22194;50.046;21.954;2022-12-20T09:05:11;30.00;;;11.30;;
36137;SDS011;22194;50.046;21.954;2022-12-20T09:07:39;24.90;;;10.70;;
36137;SDS011;22194;50.046;21.954;2022-12-20T09:10:10;27.30;;;11.40;;
36137;SDS011;22194;50.046;21.954;2022-12-20T09:12:39;25.00;;;11.10;;
36137;SDS011;22194;50.046;21.954;2022-12-20T09:15:09;25.70;;;10.90;;
36137;SDS011;22194;50.046;21.954;2022-12-20T09:17:39;24.40;;;9.30;;
36137;SDS011;22194;50.046;21.954;2022-12-20T09:20:09;22.40;;;9.40;;
36137;SDS011;22194;50.046;21.954;2022-12-20T09:22:38;25.80;;;11.20;;
36137;SDS011;22194;50.046;21.954;2022-12-20T09:25:10;25.80;;;10.80;;
36137;SDS011;22194;50.046;21.954;2022-12-20T09:27:38;24.80;;;11.20;;
36137;SDS011;22194;50.046;21.954;2022-12-20T09:30:09;26.30;;;10.80;;
36137;SDS011;22194;50.046;21.954;2022-12-20T09:32:37;26.10;;;10.80;;
36137;SDS011;22194;50.046;21.954;2022-12-20T09:35:09;24.30;;;10.80;;
36137;SDS011;22194;50.046;21.954;2022-12-20T09:37:37;24.10;;;10.80;;
36137;SDS011;22194;50.046;21.954;2022-12-20T09:40:13;24.90;;;11.20;;
36137;SDS011;22194;50.046;21.954;2022-12-20T09:42:48;24.10;;;9.90;;
36137;SDS011;22194;50.046;21.954;2022-12-20T09:45:23;23.30;;;10.60;;
36137;SDS011;22194;50.046;21.954;2022-12-20T09:47:58;22.90;;;9.50;;
36137;SDS011;22194;50.046;21.954;2022-12-20T09:50:36;27.20;;;11.00;;
36137;SDS011;22194;50.046;21.954;2022-12-20T09:56:09;25.50;;;10.40;;
36137;SDS011;22194;50.046;21.954;2022-12-20T10:01:26;25.90;;;11.90;;
36137;SDS011;22194;50.046;21.954;2022-12-20T10:04:13;24.90;;;11.40;;
36137;SDS011;22194;50.046;21.954;2022-12-20T10:23:45;25.10;;;10.30;;
36137;SDS011;22194;50.046;21.954;2022-12-20T10:26:21;26.00;;;10.70;;
36137;SDS011;22194;50.046;21.954;2022-12-20T10:28:51;23.90;;;10.20;;
36137;SDS011;22194;50.046;21.954;2022-12-20T10:31:23;26.70;;;11.00;;
36137;SDS011;22194;50.046;21.954;2022-12-20T10:33:53;26.00;;;11.50;;
36137;SDS011;22194;50.046;21.954;2022-12-20T10:39:05;23.90;;;10.50;;
36137;SDS011;22194;50.046;21.954;2022-12-20T10:46:44;27.50;;;12.20;;
36137;SDS011;22194;50.046;21.954;2022-12-20T10:49:37;24.90;;;10.50;;
36137;SDS011;22194;50.046;21.954;2022-12-20T10:52:12;22.40;;;10.20;;
36137;SDS011;22194;50.046;21.954;2022-12-20T10:54:45;24.40;;;10.80;;
36137;SDS011;22194;50.046;21.954;2022-12-20T10:59:52;27.10;;;10.90;;
36137;SDS011;22194;50.046;21.954;2022-12-20T11:08:00;24.00;;;10.00;;
36137;SDS011;22194;50.046;21.954;2022-12-20T11:13:54;26.60;;;10.70;;
36137;SDS011;22194;50.046;21.954;2022-12-20T11:16:42;25.60;;;11.00;;
36137;SDS011;22194;50.046;21.954;2022-12-20T11:19:33;23.60;;;10.30;;
36137;SDS011;22194;50.046;21.954;2022-12-20T11:28:34;27.60;;;11.20;;
36137;SDS011;22194;50.046;21.954;2022-12-20T11:42:04;25.80;;;11.00;;
36137;SDS011;22194;50.046;21.954;2022-12-20T11:44:56;24.40;;;10.80;;
36137;SDS011;22194;50.046;21.954;2022-12-20T11:53:36;26.70;;;11.20;;
36137;SDS011;22194;50.046;21.954;2022-12-20T11:56:56;24.60;;;10.40;;
36137;SDS011;22194;50.046;21.954;2022-12-20T11:59:21;26.60;;;10.60;;
36137;SDS011;22194;50.046;21.954;2022-12-20T12:02:11;28.50;;;11.20;;
36137;SDS011;22194;50.046;21.954;2022-12-20T12:05:05;25.80;;;11.20;;
36137;SDS011;22194;50.046;21.954;2022-12-20T12:07:34;25.20;;;10.70;;
36137;SDS011;22194;50.046;21.954;2022-12-20T12:10:25;23.90;;;10.70;;
36137;SDS011;22194;50.046;21.954;2022-12-20T12:15:45;26.40;;;10.60;;
36137;SDS011;22194;50.046;21.954;2022-12-20T12:18:23;23.90;;;10.20;;
36137;SDS011;22194;50.046;21.954;2022-12-20T12:26:35;25.20;;;11.10;;
36137;SDS011;22194;50.046;21.954;2022-12-20T12:43:17;25.40;;;11.30;;
36137;SDS011;22194;50.046;21.954;2022-12-20T12:46:28;27.60;;;11.70;;
36137;SDS011;22194;50.046;21.954;2022-12-20T12:49:09;28.10;;;13.00;;
36137;SDS011;22194;50.046;21.954;2022-12-20T12:51:50;25.90;;;10.60;;
36137;SDS011;22194;50.046;21.954;2022-12-20T12:54:27;30.50;;;12.80;;
36137;SDS011;22194;50.046;21.954;2022-12-20T12:59:47;27.00;;;11.70;;
36137;SDS011;22194;50.046;21.954;2022-12-20T13:02:23;29.20;;;12.50;;
36137;SDS011;22194;50.046;21.954;2022-12-20T13:17:49;26.40;;;11.80;;
36137;SDS011;22194;50.046;21.954;2022-12-20T13:33:23;28.60;;;12.30;;
36137;SDS011;22194;50.046;21.954;2022-12-20T13:43:53;26.10;;;11.50;;
36137;SDS011;22194;50.046;21.954;2022-12-20T13:49:28;26.40;;;11.30;;
36137;SDS011;22194;50.046;21.954;2022-12-20T13:52:16;27.20;;;13.40;;
36137;SDS011;22194;50.046;21.954;2022-12-20T13:55:15;29.40;;;12.20;;
36137;SDS011;22194;50.046;21.954;2022-12-20T13:58:44;30.10;;;13.40;;
36137;SDS011;22194;50.046;21.954;2022-12-20T14:01:11;28.80;;;11.70;;
36137;SDS011;22194;50.046;21.954;2022-12-20T14:03:51;26.70;;;11.80;;
36137;SDS011;22194;50.046;21.954;2022-12-20T14:06:21;25.90;;;11.80;;
36137;SDS011;22194;50.046;21.954;2022-12-20T14:08:55;27.50;;;11.90;;
36137;SDS011;22194;50.046;21.954;2022-12-20T14:11:24;31.40;;;13.30;;
36137;SDS011;22194;50.046;21.954;2022-12-20T14:13:59;27.20;;;11.90;;
36137;SDS011;22194;50.046;21.954;2022-12-20T14:16:31;26.20;;;11.70;;
36137;SDS011;22194;50.046;21.954;2022-12-20T14:19:03;24.50;;;10.90;;
36137;SDS011;22194;50.046;21.954;2022-12-20T14:21:43;28.30;;;12.60;;
36137;SDS011;22194;50.046;21.954;2022-12-20T14:26:45;29.60;;;11.70;;
36137;SDS011;22194;50.046;21.954;2022-12-20T14:29:18;27.70;;;12.00;;
36137;SDS011;22194;50.046;21.954;2022-12-20T14:31:57;30.00;;;13.80;;
36137;SDS011;22194;50.046;21.954;2022-12-20T14:34:29;30.10;;;13.30;;
36137;SDS011;22194;50.046;21.954;2022-12-20T14:40:00;30.70;;;13.60;;
36137;SDS011;22194;50.046;21.954;2022-12-20T14:42:33;27.50;;;12.10;;
36137;SDS011;22194;50.046;21.954;2022-12-20T14:45:17;30.70;;;13.40;;
36137;SDS011;22194;50.046;21.954;2022-12-20T14:47:50;28.60;;;12.90;;
36137;SDS011;22194;50.046;21.954;2022-12-20T14:50:33;30.30;;;13.50;;
36137;SDS011;22194;50.046;21.954;2022-12-20T14:53:19;27.30;;;12.40;;
36137;SDS011;22194;50.046;21.954;2022-12-20T14:55:53;30.00;;;13.20;;
36137;SDS011;22194;50.046;21.954;2022-12-20T14:58:30;29.00;;;13.40;;
36137;SDS011;22194;50.046;21.954;2022-12-20T15:01:24;29.50;;;12.90;;
36137;SDS011;22194;50.046;21.954;2022-12-20T15:03:56;29.00;;;13.60;;
36137;SDS011;22194;50.046;21.954;2022-12-20T15:06:38;29.10;;;13.40;;
36137;SDS011;22194;50.046;21.954;2022-12-20T15:09:15;30.90;;;13.70;;
36137;SDS011;22194;50.046;21.954;2022-12-20T15:11:46;33.10;;;14.10;;
36137;SDS011;22194;50.046;21.954;2022-12-20T15:14:24;28.50;;;13.00;;
36137;SDS011;22194;50.046;21.954;2022-12-20T15:17:08;32.40;;;13.90;;
36137;SDS011;22194;50.046;21.954;2022-12-20T15:19:41;29.30;;;13.40;;
36137;SDS011;22194;50.046;21.954;2022-12-20T15:22:12;29.90;;;13.10;;
36137;SDS011;22194;50.046;21.954;2022-12-20T15:24:44;30.00;;;13.20;;
36137;SDS011;22194;50.046;21.954;2022-12-20T15:27:14;28.80;;;12.80;;
36137;SDS011;22194;50.046;21.954;2022-12-20T15:29:46;28.50;;;12.70;;
36137;SDS011;22194;50.046;21.954;2022-12-20T15:32:22;31.70;;;14.20;;
36137;SDS011;22194;50.046;21.954;2022-12-20T15:34:58;29.20;;;12.50;;
36137;SDS011;22194;50.046;21.954;2022-12-20T15:37:26;30.10;;;13.60;;
36137;SDS011;22194;50.046;21.954;2022-12-20T15:39:54;29.90;;;13.20;;
36137;SDS011;22194;50.046;21.954;2022-12-20T15:42:23;30.50;;;12.90;;
36137;SDS011;22194;50.046;21.954;2022-12-20T15:44:51;28.70;;;12.20;;
36137;SDS011;22194;50.046;21.954;2022-12-20T15:47:19;28.60;;;12.10;;
36137;SDS011;22194;50.046;21.954;2022-12-20T15:49:47;28.30;;;11.30;;
36137;SDS011;22194;50.046;21.954;2022-12-20T15:52:20;30.90;;;14.00;;
36137;SDS011;22194;50.046;21.954;2022-12-20T15:54:50;32.20;;;14.50;;
36137;SDS011;22194;50.046;21.954;2022-12-20T15:57:18;30.00;;;13.40;;
36137;SDS011;22194;50.046;21.954;2022-12-20T15:59:48;29.80;;;12.40;;
36137;SDS011;22194;50.046;21.954;2022-12-20T16:02:30;26.10;;;12.40;;
36137;SDS011;22194;50.046;21.954;2022-12-20T16:05:05;26.80;;;11.80;;
36137;SDS011;22194;50.046;21.954;2022-12-20T16:07:35;28.20;;;12.50;;
36137;SDS011;22194;50.046;21.954;2022-12-20T16:10:05;28.10;;;12.50;;
36137;SDS011;22194;50.046;21.954;2022-12-20T16:12:36;26.30;;;11.10;;
36137;SDS011;22194;50.046;21.954;2022-12-20T16:15:18;27.80;;;11.50;;
36137;SDS011;22194;50.046;21.954;2022-12-20T16:17:48;25.90;;;10.60;;
36137;SDS011;22194;50.046;21.954;2022-12-20T16:20:19;28.50;;;11.90;;
36137;SDS011;22194;50.046;21.954;2022-12-20T16:22:49;29.90;;;13.50;;
36137;SDS011;22194;50.046;21.954;2022-12-20T16:25:30;28.90;;;11.20;;
36137;SDS011;22194;50.046;21.954;2022-12-20T16:28:02;30.80;;;13.00;;
36137;SDS011;22194;50.046;21.954;2022-12-20T16:30:32;29.40;;;12.80;;
36137;SDS011;22194;50.046;21.954;2022-12-20T16:33:03;30.00;;;13.30;;
36137;SDS011;22194;50.046;21.954;2022-12-20T16:35:33;27.00;;;12.20;;
36137;SDS011;22194;50.046;21.954;2022-12-20T16:38:04;30.50;;;14.80;;
36137;SDS011;22194;50.046;21.954;2022-12-20T16:40:34;30.60;;;12.90;;
36137;SDS011;22194;50.046;21.954;2022-12-20T16:43:02;30.70;;;12.90;;
36137;SDS011;22194;50.046;21.954;2022-12-20T16:45:30;29.90;;;13.20;;
36137;SDS011;22194;50.046;21.954;2022-12-20T16:48:01;37.30;;;15.70;;
36137;SDS011;22194;50.046;21.954;2022-12-20T16:50:29;33.30;;;14.40;;
36137;SDS011;22194;50.046;21.954;2022-12-20T16:52:57;30.90;;;13.00;;
36137;SDS011;22194;50.046;21.954;2022-12-20T16:55:26;28.40;;;12.40;;
36137;SDS011;22194;50.046;21.954;2022-12-20T16:58:07;29.50;;;12.70;;
36137;SDS011;22194;50.046;21.954;2022-12-20T17:00:38;30.40;;;11.90;;
36137;SDS011;22194;50.046;21.954;2022-12-20T17:03:09;26.70;;;11.40;;
36137;SDS011;22194;50.046;21.954;2022-12-20T17:05:39;26.80;;;11.10;;
36137;SDS011;22194;50.046;21.954;2022-12-20T17:08:07;28.40;;;11.90;;
36137;SDS011;22194;50.046;21.954;2022-12-20T17:10:54;28.20;;;12.20;;
36137;SDS011;22194;50.046;21.954;2022-12-20T17:13:23;29.80;;;12.10;;